Time;durP1;ratioP1;P1;durP2;ratioP2;P2;SDS_P1;SDS_P2;PMS_P1;PMS_P2;Temp;Humidity;BMP_temperature;BMP_pressure;BME280_temperature;BME280_humidity;BME280_pressure;Samples;Min_cycle;Max_cycle;Signal;HPM_P1;HPM_P2
2023/09/24 00:00:10;;;;;;;7.72;3.22;;;19.20;52.80;;;;;;351133;28;1438;-54
2023/09/24 00:00:21;;;;;;;8.02;3.50;;;19.20;52.80;;;;;;351165;28;1513;-55
2023/09/24 00:00:33;;;;;;;7.57;3.33;;;19.20;52.90;;;;;;351093;28;1658;-56
2023/09/24 00:00:44;;;;;;;6.97;3.35;;;19.20;52.80;;;;;;351192;28;1189;-55
2023/09/24 00:00:58;;;;;;;6.90;3.20;;;19.20;52.90;;;;;;351287;28;884;-55
2023/09/24 00:01:12;;;;;;;6.70;3.47;;;19.20;52.80;;;;;;351213;28;857;-55
2023/09/24 00:01:23;;;;;;;7.47;3.58;;;19.20;52.90;;;;;;351230;28;1237;-56
2023/09/24 00:01:35;;;;;;;7.18;3.53;;;19.20;52.90;;;;;;351173;28;984;-55
2023/09/24 00:01:46;;;;;;;6.53;3.35;;;19.20;52.90;;;;;;351213;28;1102;-56
2023/09/24 00:01:56;;;;;;;5.10;3.30;;;19.20;52.90;;;;;;351275;28;1015;-55
2023/09/24 00:02:07;;;;;;;5.72;3.45;;;19.20;52.90;;;;;;351114;28;1046;-55
2023/09/24 00:02:19;;;;;;;6.25;3.70;;;19.20;53.00;;;;;;351269;28;963;-56
2023/09/24 00:02:31;;;;;;;7.15;3.83;;;19.20;52.90;;;;;;351187;28;1678;-55
2023/09/24 00:02:43;;;;;;;7.53;3.78;;;19.20;52.90;;;;;;351110;28;1038;-54
2023/09/24 00:02:54;;;;;;;8.75;3.80;;;19.20;52.90;;;;;;351253;28;1019;-54
2023/09/24 00:03:05;;;;;;;7.97;3.65;;;19.10;53.00;;;;;;351160;28;878;-55
2023/09/24 00:03:16;;;;;;;7.05;3.28;;;19.20;53.00;;;;;;351259;28;829;-54
2023/09/24 00:03:26;;;;;;;7.03;3.13;;;19.20;52.90;;;;;;351269;28;899;-54
2023/09/24 00:03:37;;;;;;;7.85;3.05;;;19.20;52.90;;;;;;351136;28;1201;-56
2023/09/24 00:03:49;;;;;;;7.82;3.20;;;19.20;52.90;;;;;;351287;28;887;-54
2023/09/24 00:04:00;;;;;;;7.10;3.25;;;19.20;52.90;;;;;;351200;28;1205;-54
2023/09/24 00:04:11;;;;;;;5.93;3.00;;;19.20;52.90;;;;;;351152;28;933;-54
2023/09/24 00:04:22;;;;;;;5.95;3.05;;;19.20;52.90;;;;;;351242;28;1804;-55
2023/09/24 00:04:33;;;;;;;5.03;3.13;;;19.20;52.90;;;;;;351233;28;971;-55
2023/09/24 00:04:43;;;;;;;5.30;3.30;;;19.20;52.90;;;;;;351135;28;1012;-55
2023/09/24 00:04:56;;;;;;;5.77;3.07;;;19.20;52.90;;;;;;351217;28;1182;-55
2023/09/24 00:05:08;;;;;;;6.10;3.22;;;19.20;52.90;;;;;;351155;28;1617;-54
2023/09/24 00:05:19;;;;;;;6.22;3.15;;;19.10;52.90;;;;;;351213;28;1363;-55
2023/09/24 00:05:30;;;;;;;5.65;3.20;;;19.20;52.90;;;;;;351178;28;935;-54
2023/09/24 00:05:42;;;;;;;6.97;3.42;;;19.20;52.90;;;;;;351211;28;1093;-57
2023/09/24 00:05:53;;;;;;;7.65;3.78;;;19.20;52.90;;;;;;351206;28;1026;-55
2023/09/24 00:06:06;;;;;;;8.35;3.83;;;19.20;53.00;;;;;;351174;28;1154;-54
2023/09/24 00:06:17;;;;;;;8.77;3.90;;;19.20;53.00;;;;;;351156;28;900;-54
2023/09/24 00:06:28;;;;;;;7.80;4.00;;;19.20;53.00;;;;;;351215;28;1432;-54
2023/09/24 00:06:38;;;;;;;7.28;4.07;;;19.20;52.90;;;;;;351198;28;1031;-54
2023/09/24 00:06:49;;;;;;;7.32;4.00;;;19.20;53.00;;;;;;351212;28;1062;-53
2023/09/24 00:07:00;;;;;;;8.63;3.83;;;19.20;53.00;;;;;;351211;28;1177;-55
2023/09/24 00:07:11;;;;;;;9.63;3.60;;;19.10;53.00;;;;;;351129;28;1031;-55
2023/09/24 00:07:21;;;;;;;8.90;3.53;;;19.20;53.10;;;;;;351206;28;1015;-56
2023/09/24 00:07:32;;;;;;;7.82;3.40;;;19.20;53.00;;;;;;351261;28;825;-56
2023/09/24 00:07:43;;;;;;;7.65;3.22;;;19.20;53.00;;;;;;351206;28;888;-54
2023/09/24 00:07:54;;;;;;;6.97;3.30;;;19.20;53.00;;;;;;351213;28;1035;-55
2023/09/24 00:08:04;;;;;;;5.82;3.45;;;19.10;53.00;;;;;;351075;28;1122;-56
2023/09/24 00:08:15;;;;;;;6.30;3.38;;;19.10;53.00;;;;;;351209;28;1020;-54
2023/09/24 00:08:26;;;;;;;7.35;3.58;;;19.20;53.10;;;;;;351223;28;998;-55
2023/09/24 00:08:37;;;;;;;7.50;3.63;;;19.20;53.10;;;;;;351276;28;853;-55
2023/09/24 00:08:48;;;;;;;7.15;3.75;;;19.10;53.10;;;;;;351199;28;1059;-55
2023/09/24 00:08:59;;;;;;;6.70;3.67;;;19.10;53.10;;;;;;351120;28;1126;-55
2023/09/24 00:09:09;;;;;;;6.20;3.40;;;19.20;53.10;;;;;;351246;28;1483;-54
2023/09/24 00:09:20;;;;;;;6.13;3.50;;;19.20;53.10;;;;;;351244;28;995;-55
2023/09/24 00:09:31;;;;;;;5.63;3.50;;;19.20;53.10;;;;;;351248;28;1030;-54
2023/09/24 00:09:42;;;;;;;5.75;3.47;;;19.10;53.00;;;;;;351205;28;1148;-54
2023/09/24 00:09:53;;;;;;;6.03;3.22;;;19.20;53.10;;;;;;351132;28;1163;-55
2023/09/24 00:10:04;;;;;;;6.30;3.22;;;19.10;53.00;;;;;;351171;28;1634;-55
2023/09/24 00:10:15;;;;;;;7.07;3.58;;;19.10;53.00;;;;;;351188;28;1102;-55
2023/09/24 00:10:26;;;;;;;9.63;4.13;;;19.20;53.10;;;;;;351248;28;873;-55
2023/09/24 00:10:36;;;;;;;10.73;4.38;;;19.10;53.10;;;;;;351127;28;1026;-54
2023/09/24 00:10:50;;;;;;;10.07;4.20;;;19.20;53.10;;;;;;351166;28;1153;-55
2023/09/24 00:11:02;;;;;;;6.85;3.65;;;19.10;53.10;;;;;;351208;28;1038;-55
2023/09/24 00:11:13;;;;;;;6.15;3.75;;;19.10;53.00;;;;;;351248;28;980;-55
2023/09/24 00:11:25;;;;;;;6.35;3.70;;;19.10;53.00;;;;;;351134;28;1096;-55
2023/09/24 00:11:37;;;;;;;5.63;3.47;;;19.10;53.00;;;;;;351188;28;999;-54
2023/09/24 00:11:47;;;;;;;5.25;3.40;;;19.10;53.00;;;;;;351098;28;1910;-55
2023/09/24 00:11:58;;;;;;;4.90;3.28;;;19.20;53.10;;;;;;351177;28;1377;-56
2023/09/24 00:12:09;;;;;;;5.80;3.20;;;19.20;53.00;;;;;;351178;28;929;-55
2023/09/24 00:12:20;;;;;;;6.25;3.22;;;19.20;53.00;;;;;;351244;28;2075;-54
2023/09/24 00:12:31;;;;;;;6.18;3.25;;;19.10;53.00;;;;;;351227;28;912;-55
2023/09/24 00:12:42;;;;;;;6.38;3.33;;;19.20;53.00;;;;;;351208;28;908;-54
2023/09/24 00:12:53;;;;;;;7.18;3.75;;;19.20;53.00;;;;;;351126;28;999;-56
2023/09/24 00:13:04;;;;;;;7.47;3.75;;;19.10;53.00;;;;;;351144;28;1163;-54
2023/09/24 00:13:14;;;;;;;6.93;3.65;;;19.10;53.10;;;;;;351240;28;987;-55
2023/09/24 00:13:25;;;;;;;6.75;3.13;;;19.10;53.10;;;;;;351249;28;1011;-54
2023/09/24 00:13:36;;;;;;;7.27;3.30;;;19.10;53.10;;;;;;351156;28;1049;-53
2023/09/24 00:13:46;;;;;;;7.22;3.30;;;19.10;53.10;;;;;;351230;28;1007;-56
2023/09/24 00:13:57;;;;;;;6.60;3.38;;;19.10;53.10;;;;;;351259;28;808;-54
2023/09/24 00:14:10;;;;;;;5.70;3.15;;;19.10;53.10;;;;;;351213;28;1003;-55
2023/09/24 00:14:21;;;;;;;5.63;3.40;;;19.10;53.10;;;;;;351155;28;931;-55
2023/09/24 00:14:32;;;;;;;6.10;3.55;;;19.10;53.10;;;;;;351220;28;1038;-55
2023/09/24 00:14:42;;;;;;;7.07;3.50;;;19.10;53.20;;;;;;351154;28;1244;-55
2023/09/24 00:14:53;;;;;;;6.88;3.50;;;19.10;53.20;;;;;;351245;28;968;-55
2023/09/24 00:15:05;;;;;;;7.05;3.63;;;19.10;53.20;;;;;;351179;28;906;-54
2023/09/24 00:15:16;;;;;;;6.32;3.60;;;19.10;53.20;;;;;;351193;28;1047;-54
2023/09/24 00:15:27;;;;;;;7.40;3.70;;;19.10;53.20;;;;;;351236;28;975;-54
2023/09/24 00:15:38;;;;;;;8.13;4.15;;;19.10;53.20;;;;;;351159;28;1023;-55
2023/09/24 00:15:49;;;;;;;8.65;4.50;;;19.10;53.20;;;;;;351161;28;1071;-56
2023/09/24 00:16:06;;;;;;;7.47;4.55;;;19.10;53.20;;;;;;351239;28;911;-55
2023/09/24 00:16:16;;;;;;;8.93;4.90;;;19.10;53.20;;;;;;351166;28;1125;-55
2023/09/24 00:16:28;;;;;;;9.57;5.00;;;19.10;53.30;;;;;;351228;28;1250;-56
2023/09/24 00:16:38;;;;;;;9.43;4.85;;;19.10;53.20;;;;;;351240;28;999;-54
2023/09/24 00:16:49;;;;;;;9.80;4.93;;;19.10;53.30;;;;;;351152;28;967;-54
2023/09/24 00:17:00;;;;;;;10.10;4.80;;;19.10;53.20;;;;;;351179;28;1134;-54
2023/09/24 00:17:10;;;;;;;7.65;4.03;;;19.10;53.20;;;;;;351205;28;1030;-54
2023/09/24 00:17:21;;;;;;;6.45;3.75;;;19.10;53.20;;;;;;351132;28;1830;-55
2023/09/24 00:17:32;;;;;;;5.32;3.35;;;19.10;53.20;;;;;;351201;28;1910;-56
2023/09/24 00:17:43;;;;;;;6.90;3.73;;;19.10;53.20;;;;;;351183;28;872;-55
2023/09/24 00:17:53;;;;;;;8.15;4.50;;;19.10;53.20;;;;;;351147;28;980;-55
2023/09/24 00:18:04;;;;;;;9.90;6.20;;;19.10;53.20;;;;;;351174;28;1200;-54
2023/09/24 00:18:17;;;;;;;10.32;7.05;;;19.10;53.20;;;;;;351240;28;920;-55
2023/09/24 00:18:28;;;;;;;10.88;6.60;;;19.10;53.20;;;;;;351095;28;1023;-54
2023/09/24 00:18:39;;;;;;;10.07;5.85;;;19.10;53.20;;;;;;351242;28;895;-55
2023/09/24 00:18:50;;;;;;;10.53;6.57;;;19.10;53.20;;;;;;351093;28;1471;-55
2023/09/24 00:19:02;;;;;;;12.48;7.93;;;19.00;53.20;;;;;;351133;28;914;-56
2023/09/24 00:19:13;;;;;;;13.82;9.30;;;19.00;53.20;;;;;;351203;28;955;-56
2023/09/24 00:19:24;;;;;;;12.63;7.95;;;19.10;53.30;;;;;;351214;28;1019;-55
2023/09/24 00:19:35;;;;;;;10.55;6.05;;;19.10;53.30;;;;;;351091;28;1123;-56
2023/09/24 00:19:47;;;;;;;9.23;5.07;;;19.10;53.30;;;;;;351196;28;1054;-57
2023/09/24 00:19:58;;;;;;;8.82;5.05;;;19.00;53.20;;;;;;351209;28;840;-54
2023/09/24 00:20:09;;;;;;;9.48;5.57;;;19.00;53.20;;;;;;351166;28;932;-56
2023/09/24 00:20:19;;;;;;;9.73;5.50;;;19.00;53.20;;;;;;351275;28;987;-54
2023/09/24 00:20:30;;;;;;;9.05;5.00;;;19.00;53.20;;;;;;351230;28;979;-56
2023/09/24 00:20:41;;;;;;;7.75;4.30;;;19.00;53.20;;;;;;351075;28;1155;-55
2023/09/24 00:20:52;;;;;;;7.78;4.38;;;19.00;53.20;;;;;;351211;28;960;-55
2023/09/24 00:21:04;;;;;;;9.45;5.00;;;19.00;53.20;;;;;;351195;28;1830;-55
2023/09/24 00:21:15;;;;;;;11.43;5.72;;;19.00;53.30;;;;;;351094;28;1118;-55
2023/09/24 00:21:25;;;;;;;10.13;5.73;;;19.00;53.30;;;;;;351160;28;1157;-54
2023/09/24 00:21:36;;;;;;;7.93;5.20;;;19.00;53.30;;;;;;351202;28;1162;-55
2023/09/24 00:21:47;;;;;;;7.75;5.00;;;19.00;53.30;;;;;;351152;28;974;-55
2023/09/24 00:21:57;;;;;;;7.35;4.57;;;19.00;53.30;;;;;;351246;28;939;-54
2023/09/24 00:22:10;;;;;;;7.70;4.45;;;19.00;53.30;;;;;;351179;28;1011;-55
2023/09/24 00:22:20;;;;;;;6.57;3.90;;;19.00;53.30;;;;;;351142;28;1007;-53
2023/09/24 00:22:32;;;;;;;6.40;3.67;;;19.00;53.30;;;;;;351251;28;1066;-55
2023/09/24 00:22:44;;;;;;;6.82;3.78;;;19.00;53.30;;;;;;351216;28;1106;-56
2023/09/24 00:22:54;;;;;;;7.40;4.28;;;18.90;53.30;;;;;;351131;28;1103;-54
2023/09/24 00:23:05;;;;;;;8.30;4.60;;;19.00;53.40;;;;;;351200;28;1015;-54
2023/09/24 00:23:16;;;;;;;6.90;4.17;;;18.90;53.40;;;;;;351231;28;789;-55
2023/09/24 00:23:28;;;;;;;6.47;3.80;;;18.90;53.40;;;;;;351073;28;1437;-57
2023/09/24 00:23:39;;;;;;;6.32;3.72;;;19.00;53.40;;;;;;351176;28;991;-55
2023/09/24 00:23:50;;;;;;;7.03;3.97;;;18.90;53.40;;;;;;351186;28;984;-55
2023/09/24 00:24:01;;;;;;;6.73;3.77;;;18.90;53.40;;;;;;351098;28;1082;-54
2023/09/24 00:24:11;;;;;;;6.43;3.40;;;18.90;53.50;;;;;;351203;28;1079;-56
2023/09/24 00:24:22;;;;;;;6.00;3.20;;;18.90;53.40;;;;;;351253;28;865;-54
2023/09/24 00:24:33;;;;;;;6.50;3.63;;;18.90;53.50;;;;;;351122;28;1016;-55
2023/09/24 00:24:45;;;;;;;6.30;4.10;;;18.90;53.50;;;;;;351144;28;1097;-55
2023/09/24 00:24:58;;;;;;;7.53;4.43;;;18.90;53.60;;;;;;351169;28;1218;-55
2023/09/24 00:25:10;;;;;;;7.88;4.53;;;18.90;53.60;;;;;;351110;28;1792;-54
2023/09/24 00:25:21;;;;;;;7.60;4.22;;;18.90;53.60;;;;;;351229;28;892;-54
2023/09/24 00:25:32;;;;;;;7.03;3.80;;;18.90;53.60;;;;;;351111;28;1692;-54
2023/09/24 00:25:44;;;;;;;7.27;3.73;;;18.90;53.60;;;;;;351140;28;1898;-55
2023/09/24 00:25:58;;;;;;;6.85;3.50;;;18.90;53.60;;;;;;351223;28;872;-54
2023/09/24 00:26:08;;;;;;;6.82;3.25;;;18.90;53.60;;;;;;351211;28;888;-55
2023/09/24 00:26:19;;;;;;;7.95;3.17;;;18.90;53.60;;;;;;351068;28;1133;-55
2023/09/24 00:26:30;;;;;;;7.53;3.35;;;18.90;53.60;;;;;;351242;28;1026;-54
2023/09/24 00:26:41;;;;;;;6.43;3.38;;;18.90;53.60;;;;;;351183;28;1387;-55
2023/09/24 00:26:53;;;;;;;6.03;3.50;;;18.90;53.60;;;;;;351128;28;1134;-55
2023/09/24 00:27:03;;;;;;;10.64;3.66;;;18.90;53.60;;;;;;351211;28;924;-55
2023/09/24 00:27:14;;;;;;;12.30;4.33;;;18.90;53.70;;;;;;351247;28;908;-55
2023/09/24 00:27:25;;;;;;;12.07;4.85;;;18.90;53.70;;;;;;351132;28;1071;-55
2023/09/24 00:27:36;;;;;;;8.02;4.88;;;18.90;53.70;;;;;;351210;28;996;-54
2023/09/24 00:27:47;;;;;;;7.73;4.47;;;18.90;53.70;;;;;;351204;28;864;-55
2023/09/24 00:27:58;;;;;;;7.40;4.15;;;18.80;53.70;;;;;;351086;28;1173;-55
2023/09/24 00:28:08;;;;;;;8.50;4.47;;;18.80;53.70;;;;;;351278;28;884;-55
2023/09/24 00:28:19;;;;;;;8.37;4.83;;;18.80;53.80;;;;;;351232;28;1022;-55
2023/09/24 00:28:30;;;;;;;9.15;5.47;;;18.80;53.80;;;;;;351119;28;1954;-55
2023/09/24 00:28:41;;;;;;;9.88;5.60;;;18.80;53.80;;;;;;351167;28;999;-55
2023/09/24 00:28:52;;;;;;;10.75;5.75;;;18.80;53.70;;;;;;351138;28;1172;-54
2023/09/24 00:29:04;;;;;;;9.50;5.00;;;18.80;53.70;;;;;;351159;28;943;-57
2023/09/24 00:29:14;;;;;;;7.57;4.50;;;18.90;53.70;;;;;;351156;28;1277;-54
2023/09/24 00:29:25;;;;;;;6.50;3.72;;;18.90;53.80;;;;;;351203;28;916;-55
2023/09/24 00:29:36;;;;;;;6.30;3.43;;;18.90;53.80;;;;;;351138;28;1012;-55
2023/09/24 00:29:46;;;;;;;6.72;3.60;;;18.80;53.80;;;;;;351207;28;1054;-55
2023/09/24 00:29:58;;;;;;;7.18;4.00;;;18.80;53.80;;;;;;351187;28;1902;-54
2023/09/24 00:30:13;;;;;;;6.95;4.10;;;18.80;53.80;;;;;;351053;28;1181;-55
2023/09/24 00:30:23;;;;;;;6.50;3.40;;;18.80;53.80;;;;;;351167;28;915;-54
2023/09/24 00:30:36;;;;;;;6.40;3.35;;;18.80;53.80;;;;;;351142;28;1544;-56
2023/09/24 00:30:48;;;;;;;6.13;3.50;;;18.90;53.80;;;;;;351057;28;1122;-55
2023/09/24 00:30:58;;;;;;;7.22;3.90;;;18.80;53.70;;;;;;351181;28;1090;-55
2023/09/24 00:31:09;;;;;;;7.43;3.97;;;18.80;53.80;;;;;;351138;28;1558;-54
2023/09/24 00:31:21;;;;;;;6.75;4.30;;;18.80;53.70;;;;;;351116;28;1043;-55
2023/09/24 00:31:32;;;;;;;7.13;5.00;;;18.80;53.70;;;;;;351205;28;988;-55
2023/09/24 00:31:42;;;;;;;8.23;5.40;;;18.90;53.80;;;;;;351193;28;944;-56
2023/09/24 00:31:53;;;;;;;9.57;5.53;;;18.80;53.80;;;;;;351041;28;1886;-53
2023/09/24 00:32:04;;;;;;;10.50;5.30;;;18.80;53.80;;;;;;351171;28;1034;-54
2023/09/24 00:32:15;;;;;;;9.20;4.65;;;18.80;53.80;;;;;;351137;28;1066;-53
2023/09/24 00:32:25;;;;;;;7.70;4.20;;;18.80;53.80;;;;;;351119;28;924;-53
2023/09/24 00:32:36;;;;;;;7.75;3.90;;;18.80;53.80;;;;;;350991;28;1034;-54
2023/09/24 00:32:47;;;;;;;8.30;4.00;;;18.80;53.80;;;;;;350917;28;1358;-54
2023/09/24 00:32:58;;;;;;;7.88;4.38;;;18.80;53.90;;;;;;350875;28;1161;-55
2023/09/24 00:33:09;;;;;;;6.78;4.50;;;18.80;53.80;;;;;;351129;28;1039;-54
2023/09/24 00:33:21;;;;;;;6.68;4.50;;;18.80;53.80;;;;;;351118;28;1498;-54
2023/09/24 00:33:32;;;;;;;7.97;4.43;;;18.80;53.80;;;;;;351143;28;878;-55
2023/09/24 00:33:42;;;;;;;8.30;4.03;;;18.80;53.80;;;;;;351208;28;802;-55
2023/09/24 00:33:53;;;;;;;8.48;3.70;;;18.80;53.90;;;;;;351167;28;1087;-55
2023/09/24 00:34:04;;;;;;;7.10;3.50;;;18.80;53.90;;;;;;351094;28;933;-55
2023/09/24 00:34:16;;;;;;;6.90;3.78;;;18.80;53.90;;;;;;351116;28;1430;-54
2023/09/24 00:34:27;;;;;;;7.90;3.97;;;18.80;53.90;;;;;;351210;28;1066;-54
2023/09/24 00:34:38;;;;;;;8.25;4.32;;;18.80;53.90;;;;;;351093;28;1006;-55
2023/09/24 00:34:49;;;;;;;8.82;5.28;;;18.70;53.90;;;;;;351176;28;1918;-54
2023/09/24 00:35:00;;;;;;;8.70;6.10;;;18.70;53.90;;;;;;351209;28;867;-54
2023/09/24 00:35:10;;;;;;;9.30;5.95;;;18.80;54.00;;;;;;351242;28;972;-55
2023/09/24 00:35:22;;;;;;;8.57;5.22;;;18.70;54.00;;;;;;351205;28;848;-56
2023/09/24 00:35:33;;;;;;;8.63;4.80;;;18.70;54.00;;;;;;351123;28;936;-54
2023/09/24 00:35:44;;;;;;;7.47;4.37;;;18.80;54.10;;;;;;351122;28;1255;-56
2023/09/24 00:35:59;;;;;;;7.60;4.07;;;18.70;54.00;;;;;;351110;28;1071;-55
2023/09/24 00:36:10;;;;;;;6.20;3.40;;;18.70;54.00;;;;;;351183;28;891;-55
2023/09/24 00:36:20;;;;;;;5.45;3.20;;;18.70;54.10;;;;;;351122;28;959;-54
2023/09/24 00:36:33;;;;;;;5.65;2.90;;;18.70;54.10;;;;;;351177;28;948;-54
2023/09/24 00:36:44;;;;;;;5.57;2.80;;;18.70;54.10;;;;;;351177;28;911;-55
2023/09/24 00:36:57;;;;;;;6.32;2.85;;;18.70;54.10;;;;;;351158;28;1047;-55
2023/09/24 00:37:09;;;;;;;6.93;2.80;;;18.70;54.10;;;;;;351045;28;1184;-55
2023/09/24 00:37:19;;;;;;;6.30;2.88;;;18.70;54.10;;;;;;351215;28;884;-54
2023/09/24 00:37:32;;;;;;;5.82;2.88;;;18.70;54.10;;;;;;351217;28;976;-55
2023/09/24 00:37:42;;;;;;;5.63;3.00;;;18.70;54.10;;;;;;351153;28;1050;-56
2023/09/24 00:37:54;;;;;;;6.30;3.40;;;18.70;54.10;;;;;;351218;28;920;-54
2023/09/24 00:38:07;;;;;;;6.53;3.40;;;18.70;54.10;;;;;;351076;28;988;-55
2023/09/24 00:38:18;;;;;;;6.63;3.10;;;18.70;54.10;;;;;;351222;28;952;-55
2023/09/24 00:38:28;;;;;;;5.93;3.17;;;18.70;54.10;;;;;;351193;28;1086;-54
2023/09/24 00:38:39;;;;;;;6.30;3.30;;;18.70;54.10;;;;;;351239;28;932;-56
2023/09/24 00:38:50;;;;;;;6.15;3.28;;;18.70;54.10;;;;;;351111;28;1051;-55
2023/09/24 00:39:01;;;;;;;5.60;3.13;;;18.70;54.10;;;;;;351147;28;1424;-53
2023/09/24 00:39:12;;;;;;;5.65;3.22;;;18.70;54.10;;;;;;351179;28;1106;-54
2023/09/24 00:39:23;;;;;;;6.68;3.72;;;18.70;54.10;;;;;;351136;28;1277;-55
2023/09/24 00:39:33;;;;;;;6.30;3.58;;;18.70;54.10;;;;;;351188;28;843;-54
2023/09/24 00:39:44;;;;;;;5.65;3.53;;;18.70;54.10;;;;;;351099;28;1054;-53
2023/09/24 00:39:55;;;;;;;5.63;3.40;;;18.70;54.10;;;;;;351148;28;1278;-55
2023/09/24 00:40:08;;;;;;;6.15;3.50;;;18.70;54.10;;;;;;351162;28;1550;-55
2023/09/24 00:40:19;;;;;;;8.50;3.60;;;18.70;54.10;;;;;;351173;28;936;-54
2023/09/24 00:40:30;;;;;;;9.33;3.50;;;18.70;54.10;;;;;;351145;28;1230;-54
2023/09/24 00:40:40;;;;;;;9.43;3.55;;;18.70;54.20;;;;;;351107;28;1008;-56
2023/09/24 00:40:51;;;;;;;7.38;3.45;;;18.70;54.10;;;;;;351165;28;1094;-55
2023/09/24 00:41:02;;;;;;;6.93;3.50;;;18.70;54.10;;;;;;351217;28;840;-54
2023/09/24 00:41:13;;;;;;;6.80;3.42;;;18.70;54.20;;;;;;351097;28;1369;-53
2023/09/24 00:41:24;;;;;;;7.85;3.50;;;18.70;54.20;;;;;;351087;28;1867;-55
2023/09/24 00:41:36;;;;;;;9.20;3.50;;;18.70;54.20;;;;;;351200;28;1090;-55
2023/09/24 00:41:49;;;;;;;9.48;3.70;;;18.70;54.20;;;;;;351141;28;988;-55
2023/09/24 00:42:00;;;;;;;9.00;4.05;;;18.70;54.10;;;;;;351110;28;967;-54
2023/09/24 00:42:12;;;;;;;9.40;4.47;;;18.70;54.10;;;;;;351159;28;1099;-54
2023/09/24 00:42:27;;;;;;;9.23;4.70;;;18.70;54.10;;;;;;351126;28;1035;-55
2023/09/24 00:42:38;;;;;;;7.30;4.45;;;18.70;54.10;;;;;;351044;28;1197;-55
2023/09/24 00:42:49;;;;;;;7.90;4.57;;;18.70;54.10;;;;;;351138;28;829;-55
2023/09/24 00:43:00;;;;;;;8.85;4.45;;;18.70;54.10;;;;;;351173;28;956;-54
2023/09/24 00:43:31;;;;;;;8.60;4.22;;;18.70;54.10;;;;;;351130;28;1126;-55
2023/09/24 00:43:43;;;;;;;8.13;4.20;;;18.70;54.20;;;;;;351023;28;1210;-56
2023/09/24 00:43:54;;;;;;;7.20;3.97;;;18.70;54.20;;;;;;351141;28;1074;-55
2023/09/24 00:44:05;;;;;;;6.63;3.65;;;18.70;54.20;;;;;;351159;28;979;-54
2023/09/24 00:44:16;;;;;;;6.25;3.08;;;18.70;54.30;;;;;;351142;28;1042;-55
2023/09/24 00:44:26;;;;;;;6.13;3.40;;;18.70;54.30;;;;;;351162;28;1226;-54
2023/09/24 00:44:37;;;;;;;6.80;3.90;;;18.70;54.20;;;;;;351214;28;952;-55
2023/09/24 00:44:48;;;;;;;7.72;4.43;;;18.70;54.20;;;;;;351175;28;1095;-54
2023/09/24 00:44:59;;;;;;;9.55;4.55;;;18.70;54.20;;;;;;351060;28;1196;-55
2023/09/24 00:45:11;;;;;;;8.93;4.70;;;18.70;54.20;;;;;;351181;28;1027;-55
2023/09/24 00:45:25;;;;;;;8.45;4.97;;;18.70;54.20;;;;;;351137;28;1629;-53
2023/09/24 00:45:36;;;;;;;7.47;4.43;;;18.70;54.20;;;;;;351096;28;1047;-55
2023/09/24 00:45:46;;;;;;;5.07;3.67;;;18.70;54.20;;;;;;351069;28;1287;-55
2023/09/24 00:46:05;;;;;;;4.82;3.35;;;18.70;54.20;;;;;;351171;28;1668;-55
2023/09/24 00:46:16;;;;;;;5.75;3.20;;;18.70;54.20;;;;;;351095;28;1134;-55
2023/09/24 00:46:27;;;;;;;7.18;3.30;;;18.70;54.20;;;;;;351050;28;1059;-56
2023/09/24 00:46:38;;;;;;;8.45;3.42;;;18.70;54.20;;;;;;351014;28;1005;-54
2023/09/24 00:46:49;;;;;;;6.95;3.30;;;18.70;54.20;;;;;;351062;28;1011;-55
2023/09/24 00:47:01;;;;;;;5.90;3.10;;;18.70;54.30;;;;;;351094;28;1012;-55
2023/09/24 00:47:12;;;;;;;5.18;3.25;;;18.70;54.20;;;;;;350939;28;1131;-54
2023/09/24 00:47:23;;;;;;;6.90;3.35;;;18.70;54.20;;;;;;351070;28;1938;-54
2023/09/24 00:47:34;;;;;;;7.30;3.22;;;18.70;54.20;;;;;;351068;28;872;-55
2023/09/24 00:47:47;;;;;;;6.97;3.00;;;18.70;54.20;;;;;;350973;28;1039;-54
2023/09/24 00:47:59;;;;;;;5.60;3.00;;;18.70;54.20;;;;;;351065;28;939;-54
2023/09/24 00:48:10;;;;;;;5.97;3.20;;;18.70;54.20;;;;;;351089;28;853;-55
2023/09/24 00:48:23;;;;;;;6.80;3.35;;;18.70;54.20;;;;;;350901;28;1533;-55
2023/09/24 00:48:34;;;;;;;5.75;3.13;;;18.70;54.20;;;;;;351182;28;1130;-55
2023/09/24 00:48:45;;;;;;;6.00;3.00;;;18.70;54.20;;;;;;351189;28;964;-56
2023/09/24 00:48:57;;;;;;;5.93;2.80;;;18.70;54.20;;;;;;351062;28;1832;-55
2023/09/24 00:49:08;;;;;;;5.55;2.80;;;18.70;54.30;;;;;;351202;28;1004;-54
2023/09/24 00:49:19;;;;;;;5.72;2.80;;;18.70;54.30;;;;;;351225;28;837;-56
2023/09/24 00:49:29;;;;;;;5.32;2.90;;;18.70;54.30;;;;;;351128;28;970;-55
2023/09/24 00:49:42;;;;;;;5.33;2.90;;;18.70;54.30;;;;;;351199;28;1030;-55
2023/09/24 00:49:54;;;;;;;5.50;3.20;;;18.70;54.30;;;;;;351201;28;979;-55
2023/09/24 00:50:08;;;;;;;6.63;3.30;;;18.70;54.30;;;;;;351220;28;923;-55
2023/09/24 00:50:21;;;;;;;6.55;3.55;;;18.70;54.30;;;;;;351150;28;940;-55
2023/09/24 00:50:33;;;;;;;6.00;3.35;;;18.70;54.30;;;;;;351161;28;1110;-54
2023/09/24 00:50:44;;;;;;;6.57;3.13;;;18.70;54.30;;;;;;351178;28;856;-55
2023/09/24 00:51:16;;;;;;;5.97;2.90;;;18.70;54.30;;;;;;351234;28;932;-54
2023/09/24 00:51:28;;;;;;;6.50;2.60;;;18.70;54.30;;;;;;350581;28;1523;-54
2023/09/24 00:51:40;;;;;;;5.53;2.63;;;18.70;54.30;;;;;;351145;28;976;-55
2023/09/24 00:51:52;;;;;;;5.30;3.25;;;18.70;54.30;;;;;;351083;28;1898;-54
2023/09/24 00:52:03;;;;;;;6.32;3.72;;;18.70;54.30;;;;;;351120;28;1127;-55
2023/09/24 00:52:15;;;;;;;6.82;4.10;;;18.70;54.30;;;;;;351168;28;1058;-55
2023/09/24 00:52:26;;;;;;;6.68;3.72;;;18.70;54.30;;;;;;351148;28;933;-55
2023/09/24 00:52:37;;;;;;;6.10;3.42;;;18.70;54.30;;;;;;351180;28;943;-56
2023/09/24 00:52:50;;;;;;;5.68;3.08;;;18.70;54.30;;;;;;351123;28;1912;-55
2023/09/24 00:53:02;;;;;;;6.30;3.50;;;18.70;54.40;;;;;;351114;28;1126;-54
2023/09/24 00:53:14;;;;;;;6.25;3.35;;;18.70;54.40;;;;;;351141;28;1117;-56
2023/09/24 00:53:28;;;;;;;5.60;3.25;;;18.70;54.40;;;;;;351056;28;1035;-53
2023/09/24 00:53:38;;;;;;;5.30;2.90;;;18.70;54.40;;;;;;351057;28;1261;-55
2023/09/24 00:53:52;;;;;;;5.38;3.17;;;18.60;54.40;;;;;;351176;28;1034;-55
2023/09/24 00:54:03;;;;;;;6.38;3.42;;;18.60;54.40;;;;;;351215;28;1007;-54
2023/09/24 00:54:14;;;;;;;6.43;3.70;;;18.70;54.40;;;;;;351024;28;1283;-54
2023/09/24 00:54:25;;;;;;;6.53;4.13;;;18.70;54.30;;;;;;351147;28;1051;-54
2023/09/24 00:54:38;;;;;;;6.82;4.20;;;18.70;54.30;;;;;;351124;28;1075;-55
2023/09/24 00:54:48;;;;;;;7.13;3.80;;;18.60;54.40;;;;;;351149;28;914;-55
2023/09/24 00:54:59;;;;;;;6.05;3.40;;;18.70;54.30;;;;;;351176;28;849;-53
2023/09/24 00:55:11;;;;;;;5.23;3.20;;;18.60;54.40;;;;;;351030;28;1099;-54
2023/09/24 00:55:22;;;;;;;6.22;3.13;;;18.70;54.40;;;;;;351129;28;999;-55
2023/09/24 00:55:34;;;;;;;7.40;3.13;;;18.60;54.30;;;;;;351124;28;1148;-55
2023/09/24 00:55:45;;;;;;;8.75;3.90;;;18.70;54.40;;;;;;351045;28;948;-55
2023/09/24 00:55:57;;;;;;;8.23;4.57;;;18.70;54.40;;;;;;351127;28;987;-54
2023/09/24 00:56:09;;;;;;;9.68;5.18;;;18.70;54.40;;;;;;351055;28;1448;-55
2023/09/24 00:56:23;;;;;;;9.18;4.72;;;18.60;54.40;;;;;;351026;28;1122;-54
2023/09/24 00:56:34;;;;;;;8.48;4.13;;;18.60;54.40;;;;;;351151;28;1061;-55
2023/09/24 00:56:45;;;;;;;7.82;3.53;;;18.70;54.40;;;;;;351171;28;920;-56
2023/09/24 00:56:58;;;;;;;6.85;3.30;;;18.60;54.30;;;;;;351077;28;1074;-56
2023/09/24 00:57:10;;;;;;;5.97;3.30;;;18.70;54.30;;;;;;351196;28;990;-55
2023/09/24 00:57:23;;;;;;;5.40;3.38;;;18.60;54.30;;;;;;351145;28;936;-54
2023/09/24 00:57:34;;;;;;;6.85;3.88;;;18.70;54.40;;;;;;351040;28;1197;-55
2023/09/24 00:57:48;;;;;;;7.22;4.05;;;18.60;54.40;;;;;;351173;28;1021;-56
2023/09/24 00:57:59;;;;;;;7.38;4.18;;;18.60;54.40;;;;;;351111;28;1196;-55
2023/09/24 00:58:10;;;;;;;8.05;4.40;;;18.70;54.40;;;;;;351104;28;977;-54
2023/09/24 00:58:26;;;;;;;7.47;4.38;;;18.60;54.30;;;;;;351131;28;1122;-54
2023/09/24 00:58:38;;;;;;;7.35;4.32;;;18.60;54.30;;;;;;351153;28;991;-54
2023/09/24 00:58:52;;;;;;;6.95;4.43;;;18.60;54.30;;;;;;351066;28;967;-54
2023/09/24 00:59:04;;;;;;;7.03;4.38;;;18.60;54.30;;;;;;351188;28;836;-55
2023/09/24 00:59:15;;;;;;;6.90;3.67;;;18.60;54.30;;;;;;351148;28;1051;-55
2023/09/24 00:59:28;;;;;;;6.57;3.28;;;18.60;54.30;;;;;;351137;28;1014;-56
2023/09/24 00:59:39;;;;;;;6.13;3.33;;;18.60;54.30;;;;;;351173;28;1010;-55
2023/09/24 00:59:50;;;;;;;6.72;3.58;;;18.60;54.30;;;;;;351156;28;1082;-54
2023/09/24 01:00:12;;;;;;;7.05;3.40;;;18.70;54.30;;;;;;351111;28;1113;-56
2023/09/24 01:00:25;;;;;;;7.80;3.60;;;18.60;54.30;;;;;;351126;28;1030;-56
2023/09/24 01:00:35;;;;;;;6.60;3.50;;;18.60;54.30;;;;;;351107;28;983;-54
2023/09/24 01:00:47;;;;;;;6.90;3.80;;;18.60;54.30;;;;;;351144;28;999;-54
2023/09/24 01:00:57;;;;;;;7.90;3.72;;;18.70;54.30;;;;;;351163;28;912;-56
2023/09/24 01:01:08;;;;;;;7.97;3.50;;;18.70;54.30;;;;;;351077;28;1050;-56
2023/09/24 01:01:25;;;;;;;8.03;3.27;;;18.70;54.30;;;;;;351128;28;1090;-54
2023/09/24 01:01:36;;;;;;;7.70;3.20;;;18.70;54.30;;;;;;351056;28;979;-54
2023/09/24 01:01:48;;;;;;;6.32;3.25;;;18.60;54.30;;;;;;351158;28;891;-56
2023/09/24 01:01:59;;;;;;;6.93;3.40;;;18.60;54.30;;;;;;351116;28;1126;-54